Time;durP1;ratioP1;P1;durP2;ratioP2;P2;SDS_P1;SDS_P2;PMS_P1;PMS_P2;Temp;Humidity;BMP_temperature;BMP_pressure;BME280_temperature;BME280_humidity;BME280_pressure;Samples;Min_cycle;Max_cycle;Signal;HPM_P1;HPM_P2
2023/07/31 00:00:36;;;;;;;20.27;19.48;;;19.40;1.00;;;;;;5035200;28;20049;-78
2023/07/31 00:03:02;;;;;;;20.08;19.27;;;19.40;1.00;;;;;;5034276;28;20049;-80
2023/07/31 00:05:28;;;;;;;18.42;17.52;;;19.50;1.00;;;;;;5035365;28;20030;-79
2023/07/31 00:07:54;;;;;;;20.58;19.67;;;19.60;1.00;;;;;;5037573;28;20037;-79
2023/07/31 00:10:21;;;;;;;21.40;20.50;;;19.50;1.00;;;;;;5020932;28;20029;-79
2023/07/31 00:12:47;;;;;;;19.27;18.58;;;19.50;1.00;;;;;;5031851;28;20041;-78
2023/07/31 00:15:14;;;;;;;21.20;20.40;;;19.50;1.00;;;;;;5030428;28;20050;-78
2023/07/31 00:17:40;;;;;;;19.45;18.58;;;19.50;1.00;;;;;;5034003;28;20044;-78
2023/07/31 00:20:07;;;;;;;20.45;19.55;;;19.40;1.00;;;;;;5032836;28;20030;-78
2023/07/31 00:22:34;;;;;;;20.90;20.00;;;19.50;1.00;;;;;;5031549;28;20048;-79
2023/07/31 00:25:00;;;;;;;18.75;18.05;;;19.50;1.00;;;;;;5039680;28;20038;-79
2023/07/31 00:27:26;;;;;;;19.27;18.48;;;19.40;1.00;;;;;;5033150;28;20358;-80
2023/07/31 00:29:52;;;;;;;20.17;19.38;;;19.40;1.00;;;;;;5032014;28;20037;-80
2023/07/31 00:32:18;;;;;;;19.88;19.08;;;19.40;1.00;;;;;;5030828;28;20372;-78
2023/07/31 00:34:45;;;;;;;21.13;20.23;;;19.40;1.00;;;;;;5032390;28;20045;-79
2023/07/31 00:37:11;;;;;;;19.20;18.35;;;19.30;1.00;;;;;;5037060;28;20025;-78
2023/07/31 00:39:37;;;;;;;22.58;21.65;;;19.20;1.00;;;;;;5034436;28;20033;-81
2023/07/31 00:42:03;;;;;;;20.77;19.85;;;19.20;1.00;;;;;;5035428;28;20056;-81
2023/07/31 00:44:29;;;;;;;22.17;21.20;;;19.10;1.00;;;;;;5033444;28;20087;-80
2023/07/31 00:46:56;;;;;;;20.13;19.33;;;19.00;1.00;;;;;;5034897;28;20045;-81
2023/07/31 00:49:23;;;;;;;20.92;19.98;;;18.90;1.00;;;;;;5034832;28;20052;-80
2023/07/31 00:51:49;;;;;;;20.35;19.55;;;18.80;1.00;;;;;;5034936;28;20029;-80
2023/07/31 00:54:16;;;;;;;21.90;21.00;;;18.80;1.00;;;;;;5036273;28;20048;-82
2023/07/31 00:56:45;;;;;;;23.52;22.50;;;18.70;1.00;;;;;;5030628;28;20052;-81
2023/07/31 00:59:11;;;;;;;23.27;22.38;;;18.60;1.00;;;;;;5031865;28;20056;-80
2023/07/31 01:01:38;;;;;;;25.77;24.80;;;18.60;1.00;;;;;;5031951;28;20034;-79
2023/07/31 01:04:04;;;;;;;27.50;26.40;;;18.50;1.00;;;;;;5035693;28;20052;-81
2023/07/31 01:06:34;;;;;;;28.20;27.10;;;18.40;1.00;;;;;;5035901;28;20029;-80
2023/07/31 01:09:11;;;;;;;27.80;26.70;;;18.50;1.00;;;;;;5035446;28;20028;-80
2023/07/31 01:11:52;;;;;;;25.63;24.60;;;18.40;1.00;;;;;;5034037;28;20044;-81
2023/07/31 01:14:18;;;;;;;25.00;23.98;;;18.40;1.00;;;;;;5035157;28;20050;-81
2023/07/31 01:16:44;;;;;;;30.52;29.42;;;18.40;1.00;;;;;;5033414;28;20117;-80
2023/07/31 01:19:13;;;;;;;27.58;26.48;;;18.40;1.00;;;;;;5038549;28;20354;-80
2023/07/31 01:22:02;;;;;;;29.83;28.73;;;18.30;1.00;;;;;;5045494;28;20486;-80
2023/07/31 01:25:13;;;;;;;32.15;30.95;;;18.30;1.00;;;;;;5030167;28;20041;-79
2023/07/31 01:27:50;;;;;;;26.13;25.13;;;18.20;1.00;;;;;;5032107;28;20057;-80
2023/07/31 01:30:20;;;;;;;24.85;23.85;;;18.30;1.00;;;;;;5028953;28;20387;-81
2023/07/31 01:32:47;;;;;;;;;;;18.30;1.00;;;;;;5047682;28;20033;-81
2023/07/31 01:35:13;;;;;;;24.58;23.58;;;18.20;1.00;;;;;;5035903;28;20354;-81
2023/07/31 01:37:40;;;;;;;29.00;27.90;;;18.20;1.00;;;;;;5040442;28;20045;-81
2023/07/31 01:40:07;;;;;;;29.95;28.85;;;18.20;1.00;;;;;;5035940;28;20033;-81
2023/07/31 01:42:33;;;;;;;32.67;31.40;;;18.20;1.00;;;;;;5036218;28;20034;-82
2023/07/31 01:44:59;;;;;;;26.13;25.13;;;18.20;5.80;;;;;;5055560;28;20490;-81
2023/07/31 01:47:25;;;;;;;33.47;32.17;;;18.20;3.60;;;;;;5037795;28;20029;-84
2023/07/31 01:49:51;;;;;;;31.27;29.98;;;18.10;6.40;;;;;;5040039;28;20025;-80
2023/07/31 01:52:17;;;;;;;34.15;32.85;;;18.10;4.90;;;;;;5037033;28;20033;-79
2023/07/31 01:54:44;;;;;;;32.17;30.80;;;18.10;15.40;;;;;;5035753;28;20406;-80
2023/07/31 01:57:10;;;;;;;32.72;31.40;;;18.10;17.30;;;;;;5050728;28;20048;-81
2023/07/31 01:59:36;;;;;;;34.38;33.00;;;18.10;19.50;;;;;;5035993;28;20063;-80
2023/07/31 02:02:02;;;;;;;29.65;28.45;;;18.10;17.30;;;;;;5041243;28;20344;-81
2023/07/31 02:04:30;;;;;;;28.05;26.95;;;18.10;19.90;;;;;;5031613;28;20033;-81
2023/07/31 02:06:56;;;;;;;27.75;26.75;;;18.10;16.20;;;;;;5034799;28;20461;-80
2023/07/31 02:09:22;;;;;;;27.83;26.73;;;18.00;26.20;;;;;;5034986;28;20431;-79
2023/07/31 02:11:48;;;;;;;26.38;25.38;;;18.00;20.30;;;;;;5051314;28;20045;-78
2023/07/31 02:14:15;;;;;;;25.60;24.60;;;18.00;22.30;;;;;;5034625;28;20058;-79
2023/07/31 02:16:42;;;;;;;25.67;24.67;;;18.00;29.80;;;;;;5038444;28;20038;-80
2023/07/31 02:19:08;;;;;;;28.30;27.20;;;18.00;24.10;;;;;;5036914;28;20037;-79
2023/07/31 02:21:34;;;;;;;26.23;25.23;;;18.00;27.50;;;;;;5030604;28;20033;-80
2023/07/31 02:24:01;;;;;;;26.75;25.65;;;18.00;32.00;;;;;;5034182;28;20057;-79
2023/07/31 02:26:27;;;;;;;26.58;25.52;;;17.90;27.80;;;;;;5041872;28;20029;-87
2023/07/31 02:28:53;;;;;;;26.40;25.35;;;18.00;35.70;;;;;;5038481;28;20394;-79
2023/07/31 02:31:19;;;;;;;30.63;29.42;;;17.90;34.30;;;;;;5033827;28;20036;-79
2023/07/31 02:33:45;;;;;;;30.65;29.52;;;17.90;41.40;;;;;;5035505;28;20024;-83
2023/07/31 02:36:12;;;;;;;29.33;28.23;;;17.90;57.60;;;;;;5030278;28;20582;-81
2023/07/31 02:38:38;;;;;;;27.75;26.65;;;17.90;48.40;;;;;;5034612;28;20463;-80
2023/07/31 02:41:06;;;;;;;29.83;28.63;;;17.90;41.60;;;;;;5051347;28;20395;-80
2023/07/31 02:43:32;;;;;;;29.77;28.60;;;17.80;44.80;;;;;;5037325;28;20386;-81
2023/07/31 02:45:59;;;;;;;31.00;29.70;;;17.80;37.50;;;;;;5044013;28;20049;-81
2023/07/31 02:48:26;;;;;;;29.45;28.25;;;17.80;44.50;;;;;;5057193;28;20044;-81
2023/07/31 02:50:53;;;;;;;30.77;29.38;;;17.80;49.80;;;;;;5034341;28;20044;-79
2023/07/31 02:53:19;;;;;;;29.52;28.35;;;17.80;45.80;;;;;;5036461;28;20033;-79
2023/07/31 02:55:46;;;;;;;33.33;32.05;;;17.80;53.90;;;;;;5051259;28;20525;-80
2023/07/31 02:58:12;;;;;;;29.20;28.10;;;17.70;45.80;;;;;;5036934;28;20030;-81
2023/07/31 03:00:43;;;;;;;31.92;30.60;;;17.80;38.80;;;;;;5034055;28;20467;-81
2023/07/31 03:03:09;;;;;;;;;;;17.70;47.30;;;;;;5037684;28;20554;-81
2023/07/31 03:05:36;;;;;;;33.60;32.30;;;17.70;47.60;;;;;;5031396;28;20365;-82
2023/07/31 03:08:02;;;;;;;27.67;26.67;;;17.60;51.50;;;;;;5052274;28;20483;-82
2023/07/31 03:10:28;;;;;;;28.10;27.02;;;17.70;46.80;;;;;;5033878;28;20030;-82
2023/07/31 03:12:54;;;;;;;30.73;29.52;;;17.70;54.00;;;;;;5035847;28;20064;-82
2023/07/31 03:15:20;;;;;;;26.65;25.55;;;17.60;50.00;;;;;;5035581;28;20057;-80
2023/07/31 03:17:47;;;;;;;26.90;25.80;;;17.70;43.50;;;;;;5035508;28;20045;-81
2023/07/31 03:20:13;;;;;;;26.52;25.38;;;17.70;41.40;;;;;;5032362;28;20467;-81
2023/07/31 03:22:39;;;;;;;26.58;25.48;;;17.70;47.20;;;;;;5051333;28;20049;-82
2023/07/31 03:25:06;;;;;;;24.17;23.27;;;17.70;42.90;;;;;;5037427;28;20036;-82
2023/07/31 03:27:32;;;;;;;27.13;26.13;;;17.70;45.90;;;;;;5036578;28;20029;-81
2023/07/31 03:30:00;;;;;;;26.80;25.80;;;17.70;38.70;;;;;;5046716;28;20056;-83
2023/07/31 03:32:27;;;;;;;25.35;24.42;;;17.70;46.60;;;;;;5035997;28;20033;-83
2023/07/31 03:34:53;;;;;;;25.95;24.85;;;17.70;42.40;;;;;;5032495;28;20050;-83
2023/07/31 03:37:19;;;;;;;26.85;25.85;;;17.70;46.70;;;;;;5036364;28;20391;-85
2023/07/31 03:39:46;;;;;;;25.67;24.67;;;17.70;36.70;;;;;;5035530;28;20343;-83
2023/07/31 03:42:12;;;;;;;27.05;25.95;;;17.60;49.10;;;;;;5037983;28;20045;-84
2023/07/31 03:44:38;;;;;;;26.85;25.75;;;17.70;44.20;;;;;;5035342;28;20048;-83
2023/07/31 03:47:05;;;;;;;25.25;24.33;;;17.60;46.40;;;;;;5030731;28;20065;-83
2023/07/31 03:49:32;;;;;;;26.38;25.27;;;17.60;46.50;;;;;;5041556;28;20163;-84
2023/07/31 03:51:58;;;;;;;23.88;22.88;;;17.60;48.70;;;;;;5034625;28;20045;-84
2023/07/31 03:54:24;;;;;;;23.75;22.85;;;17.50;60.40;;;;;;5035916;28;20041;-83
2023/07/31 03:56:50;;;;;;;27.00;25.90;;;17.50;65.40;;;;;;5035549;28;20025;-84
2023/07/31 03:59:16;;;;;;;23.92;22.92;;;17.50;59.50;;;;;;5034057;28;20052;-84
2023/07/31 04:01:42;;;;;;;23.02;22.10;;;17.50;58.90;;;;;;5034849;28;20033;-84
2023/07/31 04:04:08;;;;;;;23.08;22.17;;;17.50;70.10;;;;;;5038322;28;20048;-83
2023/07/31 04:06:35;;;;;;;22.58;21.67;;;17.50;66.40;;;;;;5027426;28;20037;-84
2023/07/31 04:09:02;;;;;;;20.15;19.35;;;17.50;83.50;;;;;;5036516;28;20041;-83
2023/07/31 04:11:28;;;;;;;21.23;20.25;;;17.50;72.30;;;;;;5025261;28;20467;-86
2023/07/31 04:13:54;;;;;;;21.42;20.52;;;17.50;69.70;;;;;;5034693;28;20049;-83
2023/07/31 04:16:20;;;;;;;22.60;21.70;;;17.40;66.00;;;;;;5033712;28;20050;-82
2023/07/31 04:18:46;;;;;;;23.20;22.30;;;17.40;68.60;;;;;;5034020;28;20133;-85
2023/07/31 04:21:13;;;;;;;22.00;21.10;;;17.50;61.30;;;;;;5033043;28;20029;-86
2023/07/31 04:23:39;;;;;;;21.50;20.55;;;17.50;79.30;;;;;;5034392;28;20042;-86
2023/07/31 04:26:05;;;;;;;24.38;23.38;;;17.50;67.40;;;;;;5037444;28;20479;-85
2023/07/31 04:28:31;;;;;;;22.75;21.63;;;17.50;54.30;;;;;;5035642;28;20045;-85
2023/07/31 04:31:00;;;;;;;23.08;22.10;;;17.50;60.40;;;;;;5034662;28;20043;-84
2023/07/31 04:33:26;;;;;;;22.58;21.30;;;17.50;64.60;;;;;;5029538;28;20033;-84
2023/07/31 04:35:53;;;;;;;23.23;22.20;;;17.50;52.90;;;;;;5033209;28;20037;-86
2023/07/31 04:38:20;;;;;;;23.08;22.08;;;17.50;58.40;;;;;;5034904;28;20030;-85
2023/07/31 04:40:47;;;;;;;23.55;22.55;;;17.60;58.20;;;;;;5030494;28;20040;-84
2023/07/31 04:43:13;;;;;;;24.15;23.15;;;17.60;52.60;;;;;;5033728;28;20030;-84
2023/07/31 04:45:42;;;;;;;25.00;24.00;;;17.60;56.70;;;;;;5020865;28;20036;-85
2023/07/31 04:48:08;;;;;;;25.33;24.13;;;17.70;54.90;;;;;;5027581;28;20033;-83
2023/07/31 04:50:34;;;;;;;24.25;23.35;;;17.70;46.00;;;;;;5039880;28;20036;-91
2023/07/31 04:53:00;;;;;;;24.63;23.60;;;17.70;50.10;;;;;;5048014;28;20045;-83
2023/07/31 04:55:26;;;;;;;25.02;24.02;;;17.70;43.30;;;;;;5031022;28;20053;-82
2023/07/31 04:57:53;;;;;;;22.60;21.70;;;17.80;40.30;;;;;;5021841;28;20036;-82
2023/07/31 05:00:19;;;;;;;23.20;21.98;;;17.90;36.90;;;;;;5026867;28;20037;-81
2023/07/31 05:02:45;;;;;;;22.45;21.55;;;17.90;47.80;;;;;;5033493;28;20037;-82
2023/07/31 05:05:11;;;;;;;23.90;22.75;;;17.90;45.60;;;;;;5031961;28;20029;-82
2023/07/31 05:07:37;;;;;;;22.52;21.52;;;17.90;29.80;;;;;;5061893;28;20050;-83
2023/07/31 05:10:03;;;;;;;21.38;20.42;;;17.90;38.00;;;;;;5054429;28;20037;-83
2023/07/31 05:12:30;;;;;;;23.80;22.85;;;18.00;32.90;;;;;;5051048;28;20038;-83
2023/07/31 05:14:56;;;;;;;20.60;19.80;;;18.00;26.50;;;;;;5037208;28;20136;-87
2023/07/31 05:17:22;;;;;;;24.27;23.38;;;18.00;35.20;;;;;;5040334;28;20029;-86
2023/07/31 05:19:49;;;;;;;22.17;21.27;;;18.00;30.60;;;;;;5044818;28;20134;-88
2023/07/31 05:22:15;;;;;;;22.00;21.17;;;18.00;32.60;;;;;;5037127;28;20033;-88
2023/07/31 05:24:41;;;;;;;20.67;19.88;;;18.00;30.10;;;;;;5035437;28;20025;-84
2023/07/31 05:27:07;;;;;;;20.23;19.30;;;18.00;35.00;;;;;;5031792;28;20033;-86
2023/07/31 05:29:33;;;;;;;21.55;20.65;;;17.90;30.10;;;;;;5034887;28;20376;-84
2023/07/31 05:31:59;;;;;;;22.95;22.05;;;18.00;26.80;;;;;;5035768;28;20045;-86
2023/07/31 05:34:25;;;;;;;21.40;20.50;;;18.00;41.00;;;;;;5043047;28;20033;-87
2023/07/31 05:36:51;;;;;;;21.55;20.65;;;18.00;30.60;;;;;;5049626;28;20041;-85
2023/07/31 05:39:19;;;;;;;19.80;19.00;;;18.00;36.30;;;;;;5037190;28;20041;-87
2023/07/31 05:41:45;;;;;;;21.27;20.38;;;18.10;32.90;;;;;;5035459;28;20032;-85
2023/07/31 05:44:11;;;;;;;20.83;19.77;;;18.10;43.60;;;;;;5035698;28;20052;-86
2023/07/31 05:46:38;;;;;;;22.45;21.60;;;18.20;32.10;;;;;;5058127;28;20498;-89
2023/07/31 05:49:04;;;;;;;21.20;20.38;;;18.20;21.70;;;;;;5039520;28;20038;-86
2023/07/31 05:51:30;;;;;;;21.80;20.83;;;18.20;22.30;;;;;;5036369;28;20037;-86
2023/07/31 05:53:56;;;;;;;20.52;19.70;;;18.20;18.80;;;;;;5052312;28;20033;-84
2023/07/31 05:56:22;;;;;;;20.95;20.10;;;18.20;15.60;;;;;;5056933;28;20482;-84
2023/07/31 05:58:50;;;;;;;20.85;19.95;;;18.20;20.50;;;;;;5036311;28;20379;-85
2023/07/31 06:01:17;;;;;;;20.67;19.88;;;18.40;19.10;;;;;;5039709;28;20390;-85
2023/07/31 06:03:43;;;;;;;19.95;19.15;;;18.50;10.10;;;;;;5035487;28;20033;-84
2023/07/31 06:06:11;;;;;;;20.40;19.58;;;18.50;13.10;;;;;;5034219;28;20025;-84
2023/07/31 06:08:37;;;;;;;20.70;19.80;;;18.50;5.30;;;;;;5041534;28;20040;-83
2023/07/31 06:11:03;;;;;;;20.98;19.98;;;18.40;11.90;;;;;;5037421;28;20030;-82
2023/07/31 06:13:29;;;;;;;20.50;19.70;;;18.40;8.30;;;;;;5038816;28;20034;-84
2023/07/31 06:15:55;;;;;;;18.88;18.15;;;18.50;9.60;;;;;;5037881;28;20096;-85
2023/07/31 06:18:21;;;;;;;20.15;19.27;;;18.50;5.20;;;;;;5036928;28;20037;-84
2023/07/31 06:20:53;;;;;;;19.00;18.10;;;18.60;1.90;;;;;;5041631;28;20037;-84
2023/07/31 06:23:20;;;;;;;19.45;18.58;;;18.60;1.00;;;;;;5030293;28;20041;-85
2023/07/31 06:25:46;;;;;;;18.75;18.05;;;18.60;4.50;;;;;;5029886;28;20038;-84
2023/07/31 06:28:12;;;;;;;17.38;16.67;;;18.80;1.00;;;;;;5048602;28;20037;-85
2023/07/31 06:30:39;;;;;;;20.83;19.92;;;18.90;1.00;;;;;;5038588;28;20475;-82
2023/07/31 06:33:05;;;;;;;23.48;22.48;;;19.00;1.00;;;;;;5036775;28;20040;-82
2023/07/31 06:35:31;;;;;;;19.92;19.00;;;19.30;1.00;;;;;;5048337;28;20034;-85
2023/07/31 06:37:57;;;;;;;20.38;19.58;;;19.40;1.00;;;;;;5033069;28;20028;-86
2023/07/31 06:40:23;;;;;;;22.77;21.65;;;19.40;1.00;;;;;;5040065;28;20029;-86
2023/07/31 06:42:49;;;;;;;21.23;20.33;;;19.40;1.00;;;;;;5036419;28;20041;-85
2023/07/31 06:45:15;;;;;;;24.60;23.60;;;19.30;1.00;;;;;;5034878;28;20145;-86
2023/07/31 06:47:42;;;;;;;24.80;23.80;;;19.30;1.00;;;;;;5037375;28;20040;-85
2023/07/31 06:50:08;;;;;;;24.40;23.48;;;19.30;1.00;;;;;;5033712;28;20037;-83
2023/07/31 06:52:34;;;;;;;25.33;24.23;;;19.20;1.00;;;;;;5034908;28;20036;-84
2023/07/31 06:55:18;;;;;;;28.17;27.08;;;19.20;1.00;;;;;;5042949;28;20048;-84
2023/07/31 06:57:44;;;;;;;29.73;28.63;;;19.20;1.00;;;;;;5033206;28;20040;-85
2023/07/31 07:00:12;;;;;;;34.03;32.72;;;19.40;1.00;;;;;;5038625;28;20387;-85
2023/07/31 07:02:38;;;;;;;41.55;40.00;;;19.60;1.00;;;;;;5036288;28;20033;-83
2023/07/31 07:05:06;;;;;;;23.63;22.73;;;20.00;1.00;;;;;;5035272;28;20049;-85
2023/07/31 07:07:33;;;;;;;27.83;26.52;;;20.40;1.00;;;;;;5032743;28;20029;-84
2023/07/31 07:10:03;;;;;;;23.27;22.35;;;20.90;1.00;;;;;;5035652;28;20049;-83
2023/07/31 07:12:29;;;;;;;;;;;21.20;1.00;;;;;;5031397;28;20394;-82
2023/07/31 07:14:57;;;;;;;33.97;32.67;;;21.50;1.00;;;;;;5032631;28;19920;-83
2023/07/31 07:17:24;;;;;;;21.15;20.35;;;21.50;1.00;;;;;;5039072;28;20033;-73
2023/07/31 07:19:50;;;;;;;21.63;20.73;;;21.60;1.00;;;;;;5031528;28;20048;-83
2023/07/31 07:22:17;;;;;;;24.55;23.55;;;21.00;1.00;;;;;;5036736;28;20061;-83
2023/07/31 07:24:43;;;;;;;21.23;20.33;;;20.60;1.00;;;;;;5039079;28;20040;-87
2023/07/31 07:27:09;;;;;;;20.23;19.42;;;20.40;1.00;;;;;;5034621;28;20033;-84
2023/07/31 07:29:35;;;;;;;25.52;24.42;;;20.40;1.00;;;;;;5035060;28;20040;-85
2023/07/31 07:32:02;;;;;;;22.92;22.02;;;20.40;1.00;;;;;;5038345;28;20043;-83
2023/07/31 07:34:28;;;;;;;25.20;24.17;;;20.50;1.00;;;;;;5036042;28;20037;-83
2023/07/31 07:36:55;;;;;;;25.55;24.52;;;20.70;1.00;;;;;;5032956;28;20041;-83
2023/07/31 07:39:21;;;;;;;26.35;25.05;;;20.70;1.00;;;;;;5042314;28;20033;-83
2023/07/31 07:41:47;;;;;;;24.85;23.85;;;20.80;1.00;;;;;;5042351;28;20037;-86
2023/07/31 07:44:14;;;;;;;24.45;23.45;;;20.90;1.00;;;;;;5042681;28;20467;-83
2023/07/31 07:46:41;;;;;;;26.48;25.27;;;21.00;1.00;;;;;;5033666;28;20033;-84
2023/07/31 07:49:07;;;;;;;30.23;29.02;;;21.60;1.00;;;;;;5022350;28;20032;-83
2023/07/31 07:51:33;;;;;;;36.03;34.72;;;22.20;1.00;;;;;;5037588;28;20033;-85
2023/07/31 07:53:59;;;;;;;35.85;34.50;;;22.40;1.00;;;;;;5034799;28;20432;-83
2023/07/31 07:56:26;;;;;;;31.08;29.88;;;22.70;1.00;;;;;;5039197;28;20040;-82
2023/07/31 07:58:53;;;;;;;29.42;28.33;;;22.40;1.00;;;;;;5029014;28;20044;-84
2023/07/31 08:01:20;;;;;;;35.92;34.53;;;22.20;1.00;;;;;;5020155;28;20468;-83
2023/07/31 08:03:47;;;;;;;46.85;45.08;;;22.70;1.00;;;;;;5021195;28;20041;-85
2023/07/31 08:06:14;;;;;;;41.90;40.40;;;22.50;1.00;;;;;;5057964;28;20033;-86
2023/07/31 08:08:40;;;;;;;45.42;43.75;;;22.60;1.00;;;;;;5037511;28;20072;-82
2023/07/31 08:11:07;;;;;;;35.42;34.13;;;22.50;1.00;;;;;;5035948;28;20025;-83
2023/07/31 08:13:33;;;;;;;22.80;21.80;;;22.60;1.00;;;;;;5033771;28;20049;-82
2023/07/31 08:15:59;;;;;;;40.80;39.33;;;22.60;1.00;;;;;;5030464;28;20458;-85
2023/07/31 08:18:25;;;;;;;38.63;37.22;;;22.20;1.00;;;;;;5032283;28;20495;-83
2023/07/31 08:20:51;;;;;;;34.25;32.95;;;22.10;1.00;;;;;;5029688;28;20033;-86
2023/07/31 08:23:17;;;;;;;31.38;30.08;;;22.20;1.00;;;;;;5035889;28;20034;-87
2023/07/31 08:25:46;;;;;;;25.10;24.10;;;22.80;1.00;;;;;;5035656;28;20060;-87
2023/07/31 08:28:12;;;;;;;21.48;20.58;;;23.20;1.00;;;;;;5041502;28;20034;-85
2023/07/31 08:30:38;;;;;;;20.90;20.10;;;22.90;1.00;;;;;;5038074;28;20033;-87
2023/07/31 08:33:04;;;;;;;24.08;23.08;;;22.90;1.00;;;;;;5033199;28;20033;-87
2023/07/31 08:35:31;;;;;;;26.83;25.77;;;22.70;1.00;;;;;;5031656;28;20454;-87
2023/07/31 08:37:57;;;;;;;24.98;24.08;;;23.00;1.00;;;;;;5040684;28;20041;-87
2023/07/31 08:40:23;;;;;;;23.23;22.30;;;23.40;1.00;;;;;;5025192;28;20033;-86
2023/07/31 08:42:53;;;;;;;20.67;19.77;;;23.90;1.00;;;;;;5023037;28;20052;-85
2023/07/31 08:45:20;;;;;;;19.30;18.48;;;24.10;99.90;;;;;;5034836;28;20032;-85
2023/07/31 08:47:48;;;;;;;19.90;18.90;;;23.90;99.90;;;;;;5031501;28;20029;-85
2023/07/31 08:50:16;;;;;;;21.35;20.45;;;24.00;99.90;;;;;;5037373;28;20037;-83
2023/07/31 08:52:43;;;;;;;23.90;22.92;;;23.30;1.00;;;;;;5028807;28;20029;-82
2023/07/31 08:55:09;;;;;;;34.42;33.10;;;23.00;1.00;;;;;;5034697;28;20029;-83
2023/07/31 08:57:38;;;;;;;33.28;31.98;;;23.00;1.00;;;;;;5034402;28;20485;-81
2023/07/31 09:00:06;;;;;;;34.17;32.78;;;22.70;1.00;;;;;;5031374;28;20059;-83
2023/07/31 09:02:45;;;;;;;33.47;31.95;;;22.40;1.00;;;;;;5034456;28;20064;-81
2023/07/31 09:05:12;;;;;;;31.58;30.08;;;22.50;1.00;;;;;;5033026;28;20504;-83
2023/07/31 09:07:40;;;;;;;30.40;29.10;;;22.60;1.00;;;;;;5037820;28;20382;-80
2023/07/31 09:10:07;;;;;;;29.17;27.88;;;22.50;1.00;;;;;;5032636;28;20400;-81
2023/07/31 09:12:33;;;;;;;30.13;29.02;;;22.40;1.00;;;;;;5033403;28;20041;-82
2023/07/31 09:15:00;;;;;;;34.45;33.05;;;22.60;1.00;;;;;;5036807;28;20370;-81
2023/07/31 09:17:31;;;;;;;30.48;29.35;;;23.30;1.00;;;;;;5032107;28;20045;-83
2023/07/31 09:20:12;;;;;;;26.90;25.80;;;23.80;1.00;;;;;;5029139;28;20034;-81
2023/07/31 09:22:39;;;;;;;24.27;23.38;;;23.40;1.00;;;;;;5030411;28;20042;-82
2023/07/31 09:25:19;;;;;;;26.08;24.98;;;23.00;1.00;;;;;;5033646;28;20045;-83
2023/07/31 09:27:53;;;;;;;25.40;24.30;;;23.20;1.00;;;;;;5045900;28;20046;-82
2023/07/31 09:30:20;;;;;;;27.23;26.15;;;23.60;99.90;;;;;;5032199;28;20052;-81
2023/07/31 09:32:48;;;;;;;21.80;20.92;;;24.00;99.90;;;;;;5034202;28;20056;-82
2023/07/31 09:35:30;;;;;;;23.90;22.85;;;23.90;99.90;;;;;;5052023;28;20021;-83
2023/07/31 09:38:02;;;;;;;21.17;20.38;;;23.90;99.90;;;;;;5025262;28;20042;-82
2023/07/31 09:40:49;;;;;;;23.48;22.52;;;23.40;99.90;;;;;;5045032;28;20470;-85
2023/07/31 09:43:20;;;;;;;25.85;24.75;;;23.70;99.90;;;;;;5030514;28;20025;-83
2023/07/31 09:45:46;;;;;;;28.85;27.65;;;23.60;99.90;;;;;;5041659;28;20037;-81
2023/07/31 09:48:17;;;;;;;28.92;27.77;;;23.30;1.00;;;;;;5034435;28;20033;-83
2023/07/31 09:50:46;;;;;;;27.77;26.73;;;23.00;1.00;;;;;;5033285;28;20386;-81
2023/07/31 09:53:13;;;;;;;28.77;27.58;;;22.70;1.00;;;;;;5034736;28;20029;-82
2023/07/31 09:55:40;;;;;;;29.75;28.60;;;22.70;1.00;;;;;;5031931;28;20061;-82
2023/07/31 09:58:09;;;;;;;29.52;28.20;;;22.70;1.00;;;;;;5032636;28;20025;-82
2023/07/31 10:00:36;;;;;;;27.45;26.33;;;22.70;1.00;;;;;;5033905;28;20056;-84
2023/07/31 10:03:06;;;;;;;30.75;29.55;;;22.60;1.00;;;;;;5034379;28;20025;-82
2023/07/31 10:05:42;;;;;;;34.67;33.25;;;22.40;1.00;;;;;;5032173;28;20030;-84
2023/07/31 10:08:10;;;;;;;40.03;38.33;;;22.40;1.00;;;;;;5036774;28;20033;-83
2023/07/31 10:10:37;;;;;;;43.30;41.55;;;22.60;1.00;;;;;;5038939;28;20030;-79
2023/07/31 10:13:05;;;;;;;41.17;39.60;;;22.80;1.00;;;;;;5035642;28;20041;-81
2023/07/31 10:15:32;;;;;;;48.63;46.83;;;22.90;1.00;;;;;;5055936;28;20048;-79
2023/07/31 10:17:59;;;;;;;46.40;44.65;;;23.00;1.00;;;;;;5036727;28;20030;-87
2023/07/31 10:20:27;;;;;;;42.03;40.45;;;22.90;1.00;;;;;;5038260;28;20033;-83
2023/07/31 10:22:55;;;;;;;37.78;36.38;;;22.80;1.00;;;;;;5032053;28;20101;-84
2023/07/31 10:25:22;;;;;;;46.25;44.45;;;23.00;1.00;;;;;;5036853;28;20036;-79
2023/07/31 10:27:50;;;;;;;39.70;38.20;;;23.10;1.00;;;;;;5033277;28;20411;-82
2023/07/31 10:30:18;;;;;;;36.55;35.15;;;23.40;99.90;;;;;;5038977;28;20037;-83
2023/07/31 10:32:46;;;;;;;32.20;30.90;;;23.50;99.90;;;;;;5035001;28;20037;-80
2023/07/31 10:35:14;;;;;;;32.92;31.63;;;23.50;99.90;;;;;;5040193;28;20025;-81
2023/07/31 10:37:42;;;;;;;28.23;27.02;;;23.50;99.90;;;;;;5032141;28;20042;-79
2023/07/31 10:40:20;;;;;;;29.45;28.25;;;23.50;99.90;;;;;;5031233;28;20398;-82
2023/07/31 10:42:54;;;;;;;33.05;31.65;;;23.60;99.90;;;;;;5054778;28;20064;-83
2023/07/31 10:45:37;;;;;;;28.38;27.20;;;23.60;99.90;;;;;;5038759;28;20045;-82
2023/07/31 10:48:15;;;;;;;27.77;26.58;;;23.60;99.90;;;;;;5034671;28;20045;-84
2023/07/31 10:50:52;;;;;;;31.30;29.90;;;23.80;99.90;;;;;;5035022;28;20034;-82
2023/07/31 10:53:37;;;;;;;29.50;28.25;;;23.80;99.90;;;;;;5028543;28;20040;-76
2023/07/31 10:56:08;;;;;;;28.00;26.73;;;23.70;99.90;;;;;;5037074;28;20040;-80
2023/07/31 10:58:36;;;;;;;25.80;24.73;;;23.70;99.90;;;;;;5037678;28;20029;-79
2023/07/31 11:01:04;;;;;;;26.15;25.05;;;23.70;99.90;;;;;;5035614;28;20039;-83
2023/07/31 11:03:52;;;;;;;24.10;23.10;;;23.80;99.90;;;;;;5029728;28;20053;-82
2023/07/31 11:06:18;;;;;;;23.30;22.30;;;23.80;99.90;;;;;;5029656;28;20037;-81
2023/07/31 11:08:49;;;;;;;23.17;22.17;;;23.60;99.90;;;;;;5034987;28;20033;-81
2023/07/31 11:11:20;;;;;;;26.02;24.73;;;23.60;99.90;;;;;;5034880;28;20029;-83
2023/07/31 11:13:52;;;;;;;23.42;22.42;;;23.60;99.90;;;;;;5033629;28;20033;-82
2023/07/31 11:16:23;;;;;;;26.58;25.35;;;23.50;99.90;;;;;;5033040;28;20042;-80
2023/07/31 11:18:51;;;;;;;28.42;27.17;;;23.50;99.90;;;;;;5042861;28;20037;-82
2023/07/31 11:21:24;;;;;;;27.88;26.77;;;23.80;99.90;;;;;;5032333;28;20037;-80
2023/07/31 11:23:53;;;;;;;28.38;27.17;;;23.50;99.90;;;;;;5047285;28;20041;-81
2023/07/31 11:26:20;;;;;;;26.02;24.92;;;23.40;99.90;;;;;;5032743;28;20387;-81
2023/07/31 11:28:50;;;;;;;28.17;27.08;;;23.30;99.90;;;;;;5036634;28;20037;-80
2023/07/31 11:31:17;;;;;;;27.52;26.38;;;23.30;99.90;;;;;;5033281;28;20029;-85
2023/07/31 11:33:43;;;;;;;27.48;26.38;;;23.50;99.90;;;;;;5025387;28;20499;-80
2023/07/31 11:36:17;;;;;;;28.40;27.10;;;23.40;99.90;;;;;;5030195;28;20049;-80
2023/07/31 11:38:43;;;;;;;26.90;25.80;;;23.20;99.90;;;;;;5032459;28;20040;-83
2023/07/31 11:41:09;;;;;;;29.27;28.02;;;23.00;99.90;;;;;;5030171;28;20041;-85
2023/07/31 11:43:38;;;;;;;28.92;27.65;;;22.80;99.90;;;;;;5036736;28;20044;-81
2023/07/31 11:46:06;;;;;;;24.48;23.48;;;22.80;99.90;;;;;;5036565;28;20398;-82
2023/07/31 11:48:36;;;;;;;28.50;27.27;;;22.90;99.90;;;;;;5031910;28;20156;-80
2023/07/31 11:51:08;;;;;;;28.53;27.30;;;22.90;99.90;;;;;;5031117;28;20033;-81
2023/07/31 11:53:53;;;;;;;28.85;27.55;;;22.90;99.90;;;;;;5034792;28;20047;-80
2023/07/31 11:56:20;;;;;;;27.27;26.10;;;22.90;99.90;;;;;;5034567;28;20045;-83
2023/07/31 11:58:49;;;;;;;32.15;30.85;;;22.90;99.90;;;;;;5052037;28;20489;-80
2023/07/31 12:01:18;;;;;;;35.08;33.78;;;22.90;1.00;;;;;;5032164;28;20659;-84
2023/07/31 12:03:45;;;;;;;38.28;36.75;;;23.00;1.00;;;;;;5028305;28;20025;-80
2023/07/31 12:06:12;;;;;;;41.17;39.67;;;23.10;99.90;;;;;;5032490;28;20037;-81
2023/07/31 12:08:38;;;;;;;37.25;35.75;;;23.10;99.90;;;;;;5036820;28;20037;-82
2023/07/31 12:11:09;;;;;;;35.25;33.95;;;23.20;99.90;;;;;;5037700;28;20037;-83
2023/07/31 12:13:36;;;;;;;36.30;34.90;;;23.20;99.90;;;;;;5028765;28;20034;-83
2023/07/31 12:16:04;;;;;;;31.98;30.77;;;23.20;99.90;;;;;;5036368;28;20033;-82
2023/07/31 12:18:35;;;;;;;35.83;34.38;;;23.20;99.90;;;;;;5032427;28;20474;-82
2023/07/31 12:21:04;;;;;;;35.30;33.90;;;23.30;99.90;;;;;;5032764;28;20037;-81
2023/07/31 12:23:32;;;;;;;37.58;36.20;;;23.30;99.90;;;;;;5037158;28;20029;-82
2023/07/31 12:26:13;;;;;;;39.30;37.78;;;23.30;99.90;;;;;;5033193;28;20041;-85
2023/07/31 12:28:44;;;;;;;31.83;30.52;;;23.30;99.90;;;;;;5034186;28;20034;-82
2023/07/31 12:31:13;;;;;;;29.75;28.52;;;23.10;99.90;;;;;;5036865;28;20568;-82
2023/07/31 12:33:41;;;;;;;29.83;28.63;;;22.90;99.90;;;;;;5035056;28;20140;-83
2023/07/31 12:36:10;;;;;;;30.60;29.40;;;22.80;99.90;;;;;;5037683;28;20048;-83